Главная страница
METAR-TAF:

METAR-TAF

Аэропорты :

Эн-Наджаф, Ирак

широта: 31-59-23N, долгота: 44-24-15E, высота над уровнем моря: 31 м

Текущие метеонаблюдения

Эта сводка был подготовлена 1 час и 22 минут назад, в 18:00 UTC
Ветер 5 Узел от северный
Температура 35°C
Влажность 22%
Давление 1005 hPa
Видимость: 7000 м

METAR: ORNI 171800Z 36005KT 7000 NSC 35/10 Q1005 NOSIG

Время: 22:22 (19:22 UTC)

Прогноз

Эта сводка был подготовлена 3 часа и 22 минут назад, в 16:00 UTC
Прогноз действительный с 17-го 18 UTC до 18-го 18 UTC
Ветер 12 Узел от северо-западный
Видимость: 7000 м

TAF: ORNI 171600Z 1718/1818 32012KT 7000 NSC

Метеонаблюдения и прогнозы для более 4000 аэропортов (сводки METAR и TAF).

Имеющиеся станции представлены на карте желтыми и красными точками.

Чтобы увидеть название станции, наведите на нее мышь.

Затем щелкните, чтобы увидеть метеонаблюдения и метеопрогнозы.

Управление картой: чтобы увеличить масштаб, щелкните зеленые кнопки с черным крестиком; чтобы уменьшить масштаб, щелкните зеленую кнопку с тире; для просмотра соседних карт щелкайте зеленые стрелки.


METAR-TAF: